createdAt,value
2022-10-04T00:00:25.873Z,8.63
2022-10-04T00:02:58.805Z,8.68
2022-10-04T00:05:25.868Z,8.64
2022-10-04T00:07:57.909Z,8.61
2022-10-04T00:10:31.338Z,8.67
2022-10-04T00:13:06.000Z,8.68
2022-10-04T00:15:38.996Z,8.62
2022-10-04T00:18:11.485Z,8.50
2022-10-04T00:20:56.075Z,8.57
2022-10-04T00:23:26.141Z,8.52
2022-10-04T00:25:56.520Z,8.50
2022-10-04T00:28:26.257Z,8.51
2022-10-04T00:31:16.372Z,8.51
2022-10-04T00:34:08.775Z,8.49
2022-10-04T00:36:45.027Z,8.44
2022-10-04T00:39:34.650Z,8.46
2022-10-04T00:42:44.105Z,8.48
2022-10-04T00:45:41.631Z,8.45
2022-10-04T00:48:47.188Z,8.46
2022-10-04T00:51:51.767Z,8.39
2022-10-04T00:54:44.593Z,8.40
2022-10-04T00:57:20.410Z,8.40
2022-10-04T00:59:54.382Z,8.37
2022-10-04T01:02:35.894Z,8.32
2022-10-04T01:05:17.612Z,8.31
2022-10-04T01:07:49.760Z,8.32
2022-10-04T01:10:29.628Z,8.31
2022-10-04T01:13:19.497Z,8.33
2022-10-04T01:16:14.341Z,8.20
2022-10-04T01:18:41.380Z,8.27
2022-10-04T01:21:20.215Z,8.21
2022-10-04T01:23:53.731Z,8.20
2022-10-04T01:26:29.681Z,8.17
2022-10-04T01:28:59.506Z,8.25
2022-10-04T01:31:27.099Z,8.10
2022-10-04T01:33:57.558Z,8.16
2022-10-04T01:36:24.005Z,8.15
2022-10-04T01:38:51.516Z,8.09
2022-10-04T01:41:25.353Z,7.98
2022-10-04T01:43:58.043Z,7.98
2022-10-04T01:46:31.710Z,7.94
2022-10-04T01:49:05.489Z,7.86
2022-10-04T01:51:38.426Z,7.88
2022-10-04T01:54:16.158Z,7.81
2022-10-04T01:56:49.897Z,7.85
2022-10-04T01:59:25.662Z,7.83
2022-10-04T02:01:55.980Z,7.81
2022-10-04T02:04:30.979Z,7.84
2022-10-04T02:07:00.302Z,7.92
2022-10-04T02:09:33.873Z,7.90
2022-10-04T02:12:01.464Z,7.78
2022-10-04T02:14:34.373Z,7.74
2022-10-04T02:17:05.919Z,7.71
2022-10-04T02:19:36.352Z,7.67
2022-10-04T02:22:05.343Z,7.73
2022-10-04T02:24:38.938Z,7.76
2022-10-04T02:27:06.444Z,7.65
2022-10-04T02:29:33.911Z,7.66
2022-10-04T02:32:21.276Z,7.66
2022-10-04T02:34:48.279Z,7.65
2022-10-04T02:37:15.701Z,7.61
2022-10-04T02:39:47.656Z,7.60
2022-10-04T02:42:37.849Z,7.62
2022-10-04T02:45:16.885Z,7.68
2022-10-04T02:47:48.667Z,7.72
2022-10-04T02:50:26.911Z,7.72
2022-10-04T02:53:19.395Z,7.66
2022-10-04T02:55:47.514Z,7.65
2022-10-04T02:58:18.399Z,7.54
2022-10-04T03:00:49.599Z,7.58
2022-10-04T03:03:31.108Z,7.59
2022-10-04T03:06:07.790Z,7.57
2022-10-04T03:08:51.750Z,7.56
2022-10-04T03:11:20.911Z,7.53
2022-10-04T03:13:50.685Z,7.54
2022-10-04T03:16:17.964Z,7.48
2022-10-04T03:18:47.143Z,7.51
2022-10-04T03:21:16.024Z,7.39
2022-10-04T03:23:43.690Z,7.45
2022-10-04T03:26:35.017Z,7.46
2022-10-04T03:29:02.712Z,7.56
2022-10-04T03:31:30.360Z,7.55
2022-10-04T03:33:58.535Z,7.56
2022-10-04T03:36:27.077Z,7.61
2022-10-04T03:38:56.998Z,7.49
2022-10-04T03:41:25.968Z,7.41
2022-10-04T03:43:54.747Z,7.44
2022-10-04T03:46:23.103Z,7.51
2022-10-04T03:48:53.344Z,7.43
2022-10-04T03:51:23.040Z,7.34
2022-10-04T03:53:52.915Z,7.37
2022-10-04T03:56:24.580Z,7.37
2022-10-04T03:58:52.391Z,7.37
2022-10-04T04:01:28.955Z,7.31
2022-10-04T04:04:16.225Z,7.21
2022-10-04T04:07:05.255Z,7.25
2022-10-04T04:09:41.181Z,7.23
2022-10-04T04:12:15.170Z,7.21
2022-10-04T04:14:42.986Z,7.25
2022-10-04T04:17:44.268Z,7.18
2022-10-04T04:20:20.322Z,7.26
2022-10-04T04:22:56.937Z,7.18
2022-10-04T04:25:25.932Z,7.27
2022-10-04T04:28:03.495Z,7.14
2022-10-04T04:30:31.748Z,7.21
2022-10-04T04:33:06.843Z,7.17
2022-10-04T04:35:36.246Z,7.13
2022-10-04T04:38:21.687Z,7.25
2022-10-04T04:40:49.423Z,7.28
2022-10-04T04:43:22.196Z,7.31
2022-10-04T04:46:08.486Z,7.32
2022-10-04T04:48:37.747Z,7.38
2022-10-04T04:51:04.711Z,7.35
2022-10-04T04:53:32.316Z,7.28
2022-10-04T04:56:05.428Z,7.22
2022-10-04T04:58:43.350Z,7.32
2022-10-04T05:01:28.786Z,7.38
2022-10-04T05:04:14.235Z,7.36
2022-10-04T05:07:09.895Z,7.40
2022-10-04T05:09:44.242Z,7.44
2022-10-04T05:12:18.351Z,7.45
2022-10-04T05:14:52.111Z,7.48
2022-10-04T05:17:22.967Z,7.52
2022-10-04T05:19:51.260Z,7.47
2022-10-04T05:22:23.038Z,7.44
2022-10-04T05:24:56.268Z,7.44
2022-10-04T05:27:33.051Z,7.45
2022-10-04T05:30:25.388Z,7.42
2022-10-04T05:33:08.738Z,7.43
2022-10-04T05:35:56.440Z,7.44
2022-10-04T05:38:38.425Z,7.49
2022-10-04T05:41:09.615Z,7.52
2022-10-04T05:43:44.395Z,7.50
2022-10-04T05:46:28.927Z,7.57
2022-10-04T05:49:00.890Z,7.56
2022-10-04T05:51:37.440Z,7.47
2022-10-04T05:54:04.838Z,7.51
2022-10-04T05:56:55.545Z,7.54
2022-10-04T05:59:55.228Z,7.52
2022-10-04T06:02:56.156Z,7.54
2022-10-04T06:05:43.899Z,7.58
2022-10-04T06:08:39.695Z,7.66
2022-10-04T06:11:31.540Z,7.64
2022-10-04T06:14:19.703Z,7.70
2022-10-04T06:16:58.725Z,7.76
2022-10-04T06:19:44.301Z,7.77
2022-10-04T06:22:18.426Z,7.68
2022-10-04T06:24:50.563Z,7.75
2022-10-04T06:27:49.728Z,7.76
2022-10-04T06:30:18.908Z,7.91
2022-10-04T06:32:57.856Z,7.79
2022-10-04T06:35:33.878Z,7.86
2022-10-04T06:38:14.665Z,7.81
2022-10-04T06:41:15.351Z,7.92
2022-10-04T06:43:50.386Z,7.94
2022-10-04T06:46:58.880Z,7.96
2022-10-04T06:49:39.205Z,7.95
2022-10-04T06:52:05.766Z,8.02
2022-10-04T06:54:54.317Z,7.99
2022-10-04T06:57:31.501Z,8.10
2022-10-04T07:00:10.146Z,8.15
2022-10-04T07:02:42.864Z,8.18
2022-10-04T07:05:20.120Z,8.25
2022-10-04T07:08:06.526Z,8.21
2022-10-04T07:10:40.102Z,8.21
2022-10-04T07:13:33.785Z,8.15
2022-10-04T07:16:06.548Z,8.14
2022-10-04T07:19:10.956Z,8.24
2022-10-04T07:22:04.791Z,8.17
2022-10-04T07:24:41.873Z,8.07
2022-10-04T07:27:13.998Z,8.19
2022-10-04T07:29:46.482Z,8.23
2022-10-04T07:32:22.130Z,8.08
2022-10-04T07:35:04.325Z,8.25
2022-10-04T07:37:36.663Z,8.30
2022-10-04T07:40:29.704Z,8.49
2022-10-04T07:43:04.686Z,8.55
2022-10-04T07:45:41.363Z,8.56
2022-10-04T07:48:16.812Z,8.40
2022-10-04T07:51:17.416Z,8.54
2022-10-04T07:53:53.831Z,8.79
2022-10-04T07:56:43.282Z,9.00
2022-10-04T07:59:26.202Z,9.14
2022-10-04T08:02:08.706Z,9.38
2022-10-04T08:04:52.056Z,9.44
2022-10-04T08:07:31.624Z,9.57
2022-10-04T08:10:22.456Z,9.70
2022-10-04T08:13:14.245Z,9.93
2022-10-04T08:15:43.115Z,10.00
2022-10-04T08:18:31.432Z,10.09
2022-10-04T08:20:59.554Z,10.21
2022-10-04T08:23:47.865Z,10.13
2022-10-04T08:26:52.638Z,10.26
2022-10-04T08:29:46.126Z,10.46
2022-10-04T08:32:34.432Z,10.74
2022-10-04T08:35:16.208Z,10.84
2022-10-04T08:37:49.336Z,11.01
2022-10-04T08:40:54.448Z,11.21
2022-10-04T08:43:20.915Z,11.49
2022-10-04T08:46:09.585Z,11.88
2022-10-04T08:48:39.506Z,12.08
2022-10-04T08:51:31.040Z,12.26
2022-10-04T08:54:19.731Z,12.23
2022-10-04T08:56:49.430Z,12.62
2022-10-04T08:59:32.164Z,12.56
2022-10-04T09:02:35.089Z,12.66
2022-10-04T09:05:38.977Z,12.53
2022-10-04T09:08:43.403Z,12.76
2022-10-04T09:11:41.867Z,12.55
2022-10-04T09:14:31.201Z,12.46
2022-10-04T09:17:34.224Z,12.79
2022-10-04T09:20:37.845Z,12.85
2022-10-04T09:23:34.072Z,13.29
2022-10-04T09:26:43.442Z,13.51
2022-10-04T09:29:46.104Z,13.41
2022-10-04T09:32:26.446Z,13.35
2022-10-04T09:35:14.618Z,14.00
2022-10-04T09:37:44.196Z,14.50
2022-10-04T09:40:48.068Z,14.14
2022-10-04T09:43:53.144Z,14.11
2022-10-04T09:46:29.330Z,14.29
2022-10-04T09:49:08.029Z,14.14
2022-10-04T09:52:08.818Z,13.91
2022-10-04T09:55:05.812Z,14.14
2022-10-04T09:58:13.956Z,14.68
2022-10-04T10:00:48.196Z,14.29
2022-10-04T10:03:36.997Z,14.09
2022-10-04T10:06:18.559Z,14.11
2022-10-04T10:09:15.375Z,14.23
2022-10-04T10:12:35.966Z,14.73
2022-10-04T10:15:05.388Z,14.81
2022-10-04T10:17:54.506Z,14.59
2022-10-04T10:20:44.286Z,15.27
2022-10-04T10:23:39.707Z,15.79
2022-10-04T10:26:44.539Z,15.55
2022-10-04T10:29:39.527Z,15.36
2022-10-04T10:32:35.923Z,15.64
2022-10-04T10:35:28.487Z,16.14
2022-10-04T10:38:15.459Z,16.59
2022-10-04T10:40:51.789Z,16.73
2022-10-04T10:43:49.601Z,16.95
2022-10-04T10:46:35.299Z,16.78
2022-10-04T10:49:13.905Z,16.86
2022-10-04T10:52:17.775Z,16.85
2022-10-04T10:55:04.297Z,16.54
2022-10-04T10:57:51.226Z,16.38
2022-10-04T11:00:22.155Z,16.65
2022-10-04T11:03:14.313Z,16.66
2022-10-04T11:06:13.864Z,16.58
2022-10-04T11:09:02.399Z,16.96
2022-10-04T11:11:58.304Z,17.18
2022-10-04T11:15:01.985Z,17.31
2022-10-04T11:18:12.854Z,17.27
2022-10-04T11:21:04.359Z,17.57
2022-10-04T11:24:01.588Z,17.88
2022-10-04T11:26:55.790Z,18.39
2022-10-04T11:29:31.289Z,17.89
2022-10-04T11:32:01.062Z,18.33
2022-10-04T11:34:59.580Z,17.52
2022-10-04T11:37:46.295Z,18.45
2022-10-04T11:40:47.050Z,18.58
2022-10-04T11:43:46.596Z,19.03
2022-10-04T11:46:55.207Z,18.79
2022-10-04T11:49:58.580Z,19.11
2022-10-04T11:53:03.090Z,19.78
2022-10-04T11:55:34.093Z,19.63
2022-10-04T11:58:38.766Z,20.12
2022-10-04T12:01:30.524Z,20.32
2022-10-04T12:04:18.261Z,20.36
2022-10-04T12:06:44.933Z,20.31
2022-10-04T12:09:32.889Z,20.39
2022-10-04T12:12:36.616Z,20.88
2022-10-04T12:15:30.152Z,20.19
2022-10-04T12:18:12.429Z,20.66
2022-10-04T12:20:53.831Z,20.31
2022-10-04T12:23:29.729Z,21.24
2022-10-04T12:26:33.754Z,21.45
2022-10-04T12:29:31.302Z,21.31
2022-10-04T12:32:19.993Z,21.72
2022-10-04T12:35:05.785Z,22.19
2022-10-04T12:37:47.473Z,22.02
2022-10-04T12:40:30.270Z,22.18
2022-10-04T12:43:04.662Z,22.27
2022-10-04T12:45:49.824Z,22.05
2022-10-04T12:48:38.842Z,22.90
2022-10-04T12:51:20.583Z,23.24
2022-10-04T12:54:01.557Z,22.03
2022-10-04T12:56:50.302Z,21.89
2022-10-04T12:59:44.209Z,22.72
2022-10-04T13:02:44.199Z,23.45
2022-10-04T13:05:19.363Z,22.74
2022-10-04T13:08:02.570Z,22.68
2022-10-04T13:10:35.164Z,23.18
2022-10-04T13:13:23.720Z,23.10
2022-10-04T13:19:13.597Z,23.22
2022-10-04T13:22:01.359Z,23.67
2022-10-04T13:24:56.177Z,24.23
2022-10-04T13:28:01.418Z,23.99
2022-10-04T13:30:43.275Z,23.76
2022-10-04T13:33:09.920Z,23.10
2022-10-04T13:35:58.965Z,24.50
2022-10-04T13:38:51.576Z,23.98
2022-10-04T13:41:49.460Z,24.12
2022-10-04T13:44:26.230Z,24.67
2022-10-04T13:47:11.831Z,24.87
2022-10-04T13:50:17.385Z,25.33
2022-10-04T13:53:23.623Z,25.16
2022-10-04T13:56:44.134Z,25.22
2022-10-04T13:59:42.281Z,24.97
2022-10-04T14:02:21.131Z,24.78
2022-10-04T14:05:13.545Z,25.75
2022-10-04T14:08:14.820Z,24.71
2022-10-04T14:11:07.707Z,24.75
2022-10-04T14:14:12.665Z,25.02
2022-10-04T14:17:22.692Z,24.88
2022-10-04T14:20:10.502Z,25.78
2022-10-04T14:22:55.333Z,25.76
2022-10-04T14:25:55.853Z,25.99
2022-10-04T14:29:01.149Z,26.57
2022-10-04T14:31:55.185Z,25.93
2022-10-04T14:34:56.105Z,25.84
2022-10-04T14:38:24.495Z,26.98
2022-10-04T14:41:40.991Z,26.14
2022-10-04T14:44:16.696Z,26.27
2022-10-04T14:46:54.715Z,26.54
2022-10-04T14:49:46.572Z,26.41
2022-10-04T14:52:37.860Z,26.46
2022-10-04T14:55:58.426Z,26.88
2022-10-04T14:58:33.798Z,26.81
2022-10-04T15:01:15.560Z,26.88
2022-10-04T15:04:13.796Z,26.57
2022-10-04T15:06:57.621Z,26.48
2022-10-04T15:09:37.140Z,25.60
2022-10-04T15:12:40.582Z,25.50
2022-10-04T15:15:14.254Z,25.02
2022-10-04T15:17:54.069Z,24.39
2022-10-04T15:20:25.938Z,23.69
2022-10-04T15:22:57.360Z,23.71
2022-10-04T15:25:42.450Z,23.50
2022-10-04T15:28:28.090Z,23.44
2022-10-04T15:31:12.957Z,23.50
2022-10-04T15:34:24.897Z,22.78
2022-10-04T15:37:24.037Z,22.61
2022-10-04T15:40:00.436Z,22.45
2022-10-04T15:42:32.512Z,21.90
2022-10-04T15:45:17.007Z,22.05
2022-10-04T15:48:11.358Z,22.53
2022-10-04T15:51:03.088Z,21.77
2022-10-04T15:54:02.170Z,21.56
2022-10-04T15:56:41.421Z,21.69
2022-10-04T15:59:24.108Z,21.30
2022-10-04T16:02:16.117Z,21.18
2022-10-04T16:05:00.260Z,20.99
2022-10-04T16:07:36.208Z,20.98
2022-10-04T16:10:22.863Z,20.82
2022-10-04T16:13:21.832Z,20.85
2022-10-04T16:16:17.799Z,20.72
2022-10-04T16:19:03.431Z,20.65
2022-10-04T16:21:48.311Z,20.59
2022-10-04T16:24:18.241Z,20.41
2022-10-04T16:26:45.412Z,20.30
2022-10-04T16:29:22.000Z,20.06
2022-10-04T16:32:15.461Z,19.77
2022-10-04T16:35:04.064Z,19.69
2022-10-04T16:37:39.436Z,19.37
2022-10-04T16:40:24.735Z,19.28
2022-10-04T16:43:01.430Z,19.10
2022-10-04T16:46:01.084Z,18.93
2022-10-04T16:48:30.824Z,18.66
2022-10-04T16:51:13.184Z,18.55
2022-10-04T16:53:53.145Z,18.32
2022-10-04T16:56:22.926Z,18.14
2022-10-04T16:58:52.586Z,18.09
2022-10-04T17:01:22.020Z,17.97
2022-10-04T17:04:00.563Z,17.90
2022-10-04T17:06:46.453Z,17.73
2022-10-04T17:09:37.893Z,17.73
2022-10-04T17:12:41.549Z,17.43
2022-10-04T17:15:13.816Z,17.30
2022-10-04T17:18:12.483Z,17.23
2022-10-04T17:20:41.910Z,17.26
2022-10-04T17:23:23.811Z,17.25
2022-10-04T17:26:05.781Z,17.12
2022-10-04T17:28:57.028Z,16.92
2022-10-04T17:31:36.908Z,16.86
2022-10-04T17:34:27.648Z,16.74
2022-10-04T17:37:02.746Z,16.60
2022-10-04T17:40:08.765Z,16.68
2022-10-04T17:42:46.150Z,16.48
2022-10-04T17:45:34.399Z,16.31
2022-10-04T17:48:42.080Z,16.16
2022-10-04T17:52:03.173Z,16.11
2022-10-04T17:55:13.316Z,15.92
2022-10-04T17:57:50.122Z,15.90
2022-10-04T18:00:19.859Z,15.81
2022-10-04T18:03:20.189Z,15.74
2022-10-04T18:05:53.030Z,15.85
2022-10-04T18:08:47.177Z,15.89
2022-10-04T18:11:32.705Z,15.76
2022-10-04T18:14:12.534Z,15.55
2022-10-04T18:16:56.645Z,15.54
2022-10-04T18:20:04.368Z,15.39
2022-10-04T18:22:46.751Z,15.40
2022-10-04T18:25:17.954Z,15.32
2022-10-04T18:27:52.438Z,15.20
2022-10-04T18:30:21.265Z,15.25
2022-10-04T18:32:55.156Z,15.16
2022-10-04T18:35:27.277Z,15.07
2022-10-04T18:38:15.762Z,14.92
2022-10-04T18:40:52.949Z,14.89
2022-10-04T18:43:26.420Z,14.75
2022-10-04T18:46:02.148Z,14.73
2022-10-04T18:48:44.329Z,14.75
2022-10-04T18:51:23.801Z,14.66
2022-10-04T18:54:01.337Z,14.61
2022-10-04T18:56:33.896Z,14.51
2022-10-04T18:59:37.876Z,14.31
2022-10-04T19:02:25.616Z,14.27
2022-10-04T19:05:02.011Z,14.15
2022-10-04T19:08:24.949Z,13.98
2022-10-04T19:10:59.532Z,14.01
2022-10-04T19:13:50.118Z,13.79
2022-10-04T19:16:25.850Z,13.86
2022-10-04T19:19:13.655Z,13.78
2022-10-04T19:21:59.096Z,13.80
2022-10-04T19:25:00.909Z,13.78
2022-10-04T19:27:31.987Z,13.75
2022-10-04T19:30:17.639Z,13.76
2022-10-04T19:32:47.219Z,13.76
2022-10-04T19:35:43.151Z,13.75
2022-10-04T19:38:12.642Z,13.59
2022-10-04T19:40:50.800Z,13.55
2022-10-04T19:43:26.644Z,13.46
2022-10-04T19:46:24.240Z,13.28
2022-10-04T19:48:52.398Z,13.26
2022-10-04T19:51:33.862Z,13.36
2022-10-04T19:54:15.318Z,13.27
2022-10-04T19:56:46.326Z,13.23
2022-10-04T19:59:35.752Z,13.06
2022-10-04T20:02:02.636Z,12.84
2022-10-04T20:04:35.084Z,12.73
2022-10-04T20:07:04.698Z,12.72
2022-10-04T20:09:37.134Z,12.73
2022-10-04T20:12:05.234Z,12.77
2022-10-04T20:14:32.278Z,12.69
2022-10-04T20:17:00.635Z,12.66
2022-10-04T20:19:27.054Z,12.47
2022-10-04T20:21:54.431Z,12.53
2022-10-04T20:24:36.218Z,12.35
2022-10-04T20:27:26.897Z,12.33
2022-10-04T20:29:57.290Z,12.34
2022-10-04T20:32:26.889Z,12.42
2022-10-04T20:34:55.407Z,12.40
2022-10-04T20:37:41.950Z,12.32
2022-10-04T20:40:08.551Z,12.30
2022-10-04T20:42:36.783Z,12.26
2022-10-04T20:45:22.132Z,12.20
2022-10-04T20:47:52.145Z,12.16
2022-10-04T20:50:24.533Z,12.20
2022-10-04T20:52:58.739Z,12.18
2022-10-04T20:55:28.745Z,12.14
2022-10-04T20:58:32.041Z,12.07
2022-10-04T21:01:06.723Z,12.01
2022-10-04T21:03:33.211Z,12.09
2022-10-04T21:06:10.490Z,11.97
2022-10-04T21:08:38.360Z,11.99
2022-10-04T21:11:08.264Z,11.99
2022-10-04T21:13:58.979Z,12.00
2022-10-04T21:16:44.956Z,11.89
2022-10-04T21:19:42.947Z,11.97
2022-10-04T21:22:31.316Z,11.99
2022-10-04T21:25:00.821Z,11.95
2022-10-04T21:27:38.612Z,11.89
2022-10-04T21:30:08.014Z,11.84
2022-10-04T21:32:37.540Z,11.89
2022-10-04T21:35:05.521Z,11.88
2022-10-04T21:37:32.664Z,11.81
2022-10-04T21:39:59.048Z,11.81
2022-10-04T21:42:25.865Z,11.78
2022-10-04T21:44:52.430Z,11.78
2022-10-04T21:47:21.906Z,11.76
2022-10-04T21:49:49.682Z,11.65
2022-10-04T21:52:18.248Z,11.71
2022-10-04T21:54:45.650Z,11.67
2022-10-04T21:57:13.490Z,11.63
2022-10-04T21:59:40.110Z,11.59
2022-10-04T22:02:07.736Z,11.67
2022-10-04T22:04:34.596Z,11.59
2022-10-04T22:07:02.188Z,11.59
2022-10-04T22:09:29.288Z,11.52
2022-10-04T22:11:56.071Z,11.50
2022-10-04T22:14:23.046Z,11.51
2022-10-04T22:16:50.401Z,11.45
2022-10-04T22:19:17.515Z,11.42
2022-10-04T22:21:44.322Z,11.40
2022-10-04T22:24:16.522Z,11.45
2022-10-04T22:26:43.366Z,11.45
2022-10-04T22:29:17.337Z,11.42
2022-10-04T22:31:50.657Z,11.38
2022-10-04T22:34:19.723Z,11.39
2022-10-04T22:36:49.082Z,11.45
2022-10-04T22:39:18.535Z,11.44
2022-10-04T22:41:58.464Z,11.37
2022-10-04T22:44:43.094Z,11.31
2022-10-04T22:47:15.237Z,11.28
2022-10-04T22:49:45.136Z,11.24
2022-10-04T22:52:15.569Z,11.19
2022-10-04T22:54:45.747Z,11.19
2022-10-04T22:57:14.561Z,11.19
2022-10-04T22:59:47.500Z,11.22
2022-10-04T23:02:28.654Z,11.19
2022-10-04T23:05:09.530Z,11.14
2022-10-04T23:07:38.335Z,11.09
2022-10-04T23:10:06.003Z,11.04
2022-10-04T23:12:32.411Z,11.09
2022-10-04T23:14:58.965Z,11.15
2022-10-04T23:17:29.499Z,11.14
2022-10-04T23:20:06.739Z,11.16
2022-10-04T23:22:34.180Z,11.13
2022-10-04T23:25:00.651Z,11.18
2022-10-04T23:27:28.211Z,11.19
2022-10-04T23:30:02.632Z,11.19
2022-10-04T23:32:31.419Z,11.24
2022-10-04T23:35:00.824Z,11.13
2022-10-04T23:37:31.137Z,11.07
2022-10-04T23:39:58.295Z,11.05
2022-10-04T23:42:29.492Z,11.13
2022-10-04T23:45:01.623Z,11.13
2022-10-04T23:47:36.572Z,11.14
2022-10-04T23:50:19.549Z,11.07
2022-10-04T23:52:46.468Z,11.12
2022-10-04T23:55:20.058Z,11.15
2022-10-04T23:57:47.135Z,11.13
